sensor_id;sensor_type;location;lat;lon;timestamp;P1;durP1;ratioP1;P2;durP2;ratioP2
41343;SDS011;27089;50.022;7.604;2023-04-24T00:01:33;3.00;;;2.27;;
41343;SDS011;27089;50.022;7.604;2023-04-24T00:04:02;2.20;;;2.00;;
41343;SDS011;27089;50.022;7.604;2023-04-24T00:06:29;2.13;;;2.00;;
41343;SDS011;27089;50.022;7.604;2023-04-24T00:08:59;2.50;;;2.30;;
41343;SDS011;27089;50.022;7.604;2023-04-24T00:11:27;2.27;;;2.03;;
41343;SDS011;27089;50.022;7.604;2023-04-24T00:13:54;3.77;;;2.43;;
41343;SDS011;27089;50.022;7.604;2023-04-24T00:16:21;2.93;;;2.33;;
41343;SDS011;27089;50.022;7.604;2023-04-24T00:18:49;4.13;;;3.00;;
41343;SDS011;27089;50.022;7.604;2023-04-24T00:21:17;4.60;;;3.40;;
41343;SDS011;27089;50.022;7.604;2023-04-24T00:23:44;3.17;;;2.87;;
41343;SDS011;27089;50.022;7.604;2023-04-24T00:26:12;4.50;;;2.97;;
41343;SDS011;27089;50.022;7.604;2023-04-24T00:28:39;3.40;;;3.10;;
41343;SDS011;27089;50.022;7.604;2023-04-24T00:31:06;4.73;;;3.40;;
41343;SDS011;27089;50.022;7.604;2023-04-24T00:33:33;4.60;;;3.13;;
41343;SDS011;27089;50.022;7.604;2023-04-24T00:36:01;4.30;;;2.67;;
41343;SDS011;27089;50.022;7.604;2023-04-24T00:38:28;5.50;;;2.43;;
41343;SDS011;27089;50.022;7.604;2023-04-24T00:40:55;3.53;;;2.40;;
41343;SDS011;27089;50.022;7.604;2023-04-24T00:43:23;3.63;;;2.70;;
41343;SDS011;27089;50.022;7.604;2023-04-24T00:45:50;4.43;;;2.63;;
41343;SDS011;27089;50.022;7.604;2023-04-24T00:48:17;3.27;;;2.83;;
41343;SDS011;27089;50.022;7.604;2023-04-24T00:50:45;2.63;;;2.10;;
41343;SDS011;27089;50.022;7.604;2023-04-24T00:53:12;2.10;;;1.90;;
41343;SDS011;27089;50.022;7.604;2023-04-24T00:55:39;1.83;;;1.23;;
41343;SDS011;27089;50.022;7.604;2023-04-24T00:58:07;2.37;;;1.30;;
41343;SDS011;27089;50.022;7.604;2023-04-24T01:00:35;1.37;;;1.23;;
41343;SDS011;27089;50.022;7.604;2023-04-24T01:03:02;2.87;;;1.10;;
41343;SDS011;27089;50.022;7.604;2023-04-24T01:05:30;1.10;;;1.00;;
41343;SDS011;27089;50.022;7.604;2023-04-24T01:07:59;1.87;;;1.00;;
41343;SDS011;27089;50.022;7.604;2023-04-24T01:10:27;0.87;;;0.70;;
41343;SDS011;27089;50.022;7.604;2023-04-24T01:12:58;3.10;;;0.90;;
41343;SDS011;27089;50.022;7.604;2023-04-24T01:15:25;0.50;;;0.50;;
41343;SDS011;27089;50.022;7.604;2023-04-24T01:17:53;0.40;;;0.40;;
41343;SDS011;27089;50.022;7.604;2023-04-24T01:20:21;0.67;;;0.57;;
41343;SDS011;27089;50.022;7.604;2023-04-24T01:22:51;0.77;;;0.40;;
41343;SDS011;27089;50.022;7.604;2023-04-24T01:25:18;1.10;;;0.60;;
41343;SDS011;27089;50.022;7.604;2023-04-24T01:27:45;0.50;;;0.47;;
41343;SDS011;27089;50.022;7.604;2023-04-24T01:30:12;0.87;;;0.53;;
41343;SDS011;27089;50.022;7.604;2023-04-24T01:32:40;0.73;;;0.40;;
41343;SDS011;27089;50.022;7.604;2023-04-24T01:35:10;0.70;;;0.70;;
41343;SDS011;27089;50.022;7.604;2023-04-24T01:37:37;1.20;;;0.60;;
41343;SDS011;27089;50.022;7.604;2023-04-24T01:40:06;0.83;;;0.70;;
41343;SDS011;27089;50.022;7.604;2023-04-24T01:42:34;0.90;;;0.63;;
41343;SDS011;27089;50.022;7.604;2023-04-24T01:45:01;1.43;;;0.70;;
41343;SDS011;27089;50.022;7.604;2023-04-24T01:47:30;0.63;;;0.60;;
41343;SDS011;27089;50.022;7.604;2023-04-24T01:49:58;0.97;;;0.87;;
41343;SDS011;27089;50.022;7.604;2023-04-24T01:52:25;0.80;;;0.80;;
41343;SDS011;27089;50.022;7.604;2023-04-24T01:54:53;1.97;;;0.73;;
41343;SDS011;27089;50.022;7.604;2023-04-24T01:57:22;1.50;;;0.83;;
41343;SDS011;27089;50.022;7.604;2023-04-24T01:59:50;1.53;;;1.00;;
41343;SDS011;27089;50.022;7.604;2023-04-24T02:02:17;1.30;;;0.93;;
41343;SDS011;27089;50.022;7.604;2023-04-24T02:04:46;1.53;;;0.90;;
41343;SDS011;27089;50.022;7.604;2023-04-24T02:07:13;1.30;;;1.00;;
41343;SDS011;27089;50.022;7.604;2023-04-24T02:09:40;1.87;;;1.10;;
41343;SDS011;27089;50.022;7.604;2023-04-24T02:12:07;1.23;;;1.13;;
41343;SDS011;27089;50.022;7.604;2023-04-24T02:14:35;2.17;;;1.17;;
41343;SDS011;27089;50.022;7.604;2023-04-24T02:17:02;2.03;;;1.23;;
41343;SDS011;27089;50.022;7.604;2023-04-24T02:19:29;3.17;;;1.30;;
41343;SDS011;27089;50.022;7.604;2023-04-24T02:21:57;2.03;;;1.50;;
41343;SDS011;27089;50.022;7.604;2023-04-24T02:24:24;1.90;;;1.50;;
41343;SDS011;27089;50.022;7.604;2023-04-24T02:26:51;2.33;;;1.73;;
41343;SDS011;27089;50.022;7.604;2023-04-24T02:29:17;2.23;;;1.70;;
41343;SDS011;27089;50.022;7.604;2023-04-24T02:31:46;2.43;;;1.53;;
41343;SDS011;27089;50.022;7.604;2023-04-24T02:34:13;2.30;;;1.80;;
41343;SDS011;27089;50.022;7.604;2023-04-24T02:36:40;2.30;;;1.67;;
41343;SDS011;27089;50.022;7.604;2023-04-24T02:39:07;2.20;;;1.67;;
41343;SDS011;27089;50.022;7.604;2023-04-24T02:41:34;1.70;;;1.60;;
41343;SDS011;27089;50.022;7.604;2023-04-24T02:44:01;2.07;;;1.80;;
41343;SDS011;27089;50.022;7.604;2023-04-24T02:46:28;3.00;;;2.10;;
41343;SDS011;27089;50.022;7.604;2023-04-24T02:48:56;2.43;;;2.13;;
41343;SDS011;27089;50.022;7.604;2023-04-24T02:51:23;3.10;;;1.87;;
41343;SDS011;27089;50.022;7.604;2023-04-24T02:53:50;2.30;;;2.00;;
41343;SDS011;27089;50.022;7.604;2023-04-24T02:56:17;2.80;;;2.33;;
41343;SDS011;27089;50.022;7.604;2023-04-24T02:58:44;2.90;;;2.27;;
41343;SDS011;27089;50.022;7.604;2023-04-24T03:01:11;2.50;;;2.30;;
41343;SDS011;27089;50.022;7.604;2023-04-24T03:03:38;2.27;;;2.07;;
41343;SDS011;27089;50.022;7.604;2023-04-24T03:06:07;2.80;;;2.40;;
41343;SDS011;27089;50.022;7.604;2023-04-24T03:08:34;2.73;;;2.30;;
41343;SDS011;27089;50.022;7.604;2023-04-24T03:11:01;3.63;;;2.33;;
41343;SDS011;27089;50.022;7.604;2023-04-24T03:13:28;3.23;;;2.50;;
41343;SDS011;27089;50.022;7.604;2023-04-24T03:15:55;3.80;;;2.83;;
41343;SDS011;27089;50.022;7.604;2023-04-24T03:18:22;3.47;;;2.90;;
41343;SDS011;27089;50.022;7.604;2023-04-24T03:20:49;3.70;;;3.00;;
41343;SDS011;27089;50.022;7.604;2023-04-24T03:23:17;4.53;;;3.43;;
41343;SDS011;27089;50.022;7.604;2023-04-24T03:25:44;4.80;;;3.70;;
41343;SDS011;27089;50.022;7.604;2023-04-24T03:28:13;4.70;;;3.27;;
41343;SDS011;27089;50.022;7.604;2023-04-24T03:30:40;4.80;;;3.10;;
41343;SDS011;27089;50.022;7.604;2023-04-24T03:33:07;4.80;;;3.37;;
41343;SDS011;27089;50.022;7.604;2023-04-24T03:35:34;3.30;;;2.87;;
41343;SDS011;27089;50.022;7.604;2023-04-24T03:38:02;3.50;;;3.20;;
41343;SDS011;27089;50.022;7.604;2023-04-24T03:40:31;4.17;;;3.03;;
41343;SDS011;27089;50.022;7.604;2023-04-24T03:42:58;3.90;;;3.33;;
41343;SDS011;27089;50.022;7.604;2023-04-24T03:45:25;3.47;;;3.07;;
41343;SDS011;27089;50.022;7.604;2023-04-24T03:47:52;5.20;;;3.80;;
41343;SDS011;27089;50.022;7.604;2023-04-24T03:50:20;3.50;;;3.20;;
41343;SDS011;27089;50.022;7.604;2023-04-24T03:52:47;5.67;;;3.23;;
41343;SDS011;27089;50.022;7.604;2023-04-24T03:55:14;4.13;;;3.47;;
41343;SDS011;27089;50.022;7.604;2023-04-24T03:57:42;3.90;;;3.10;;
41343;SDS011;27089;50.022;7.604;2023-04-24T04:00:10;4.07;;;3.63;;
41343;SDS011;27089;50.022;7.604;2023-04-24T04:02:39;4.63;;;3.40;;
41343;SDS011;27089;50.022;7.604;2023-04-24T04:05:06;4.03;;;3.43;;
41343;SDS011;27089;50.022;7.604;2023-04-24T04:07:33;5.00;;;4.10;;
41343;SDS011;27089;50.022;7.604;2023-04-24T04:10:00;4.63;;;3.60;;
41343;SDS011;27089;50.022;7.604;2023-04-24T04:12:28;4.57;;;3.73;;
41343;SDS011;27089;50.022;7.604;2023-04-24T04:14:56;5.00;;;4.07;;
41343;SDS011;27089;50.022;7.604;2023-04-24T04:17:23;6.27;;;4.43;;
41343;SDS011;27089;50.022;7.604;2023-04-24T04:19:50;5.13;;;4.00;;
41343;SDS011;27089;50.022;7.604;2023-04-24T04:22:17;7.13;;;5.90;;
41343;SDS011;27089;50.022;7.604;2023-04-24T04:24:44;6.60;;;5.33;;
41343;SDS011;27089;50.022;7.604;2023-04-24T04:27:12;8.20;;;6.03;;
41343;SDS011;27089;50.022;7.604;2023-04-24T04:29:39;5.77;;;3.77;;
41343;SDS011;27089;50.022;7.604;2023-04-24T04:32:07;6.73;;;5.80;;
41343;SDS011;27089;50.022;7.604;2023-04-24T04:34:34;9.30;;;6.17;;
41343;SDS011;27089;50.022;7.604;2023-04-24T04:37:02;8.37;;;5.93;;
41343;SDS011;27089;50.022;7.604;2023-04-24T04:39:29;6.63;;;5.50;;
41343;SDS011;27089;50.022;7.604;2023-04-24T04:41:56;6.73;;;5.10;;
41343;SDS011;27089;50.022;7.604;2023-04-24T04:44:23;7.90;;;5.73;;
41343;SDS011;27089;50.022;7.604;2023-04-24T04:46:50;8.80;;;6.23;;
41343;SDS011;27089;50.022;7.604;2023-04-24T04:49:22;7.90;;;5.80;;
41343;SDS011;27089;50.022;7.604;2023-04-24T04:51:49;10.23;;;7.00;;
41343;SDS011;27089;50.022;7.604;2023-04-24T04:54:17;7.87;;;6.53;;
41343;SDS011;27089;50.022;7.604;2023-04-24T04:56:44;8.47;;;5.83;;
41343;SDS011;27089;50.022;7.604;2023-04-24T04:59:10;9.73;;;5.87;;
41343;SDS011;27089;50.022;7.604;2023-04-24T05:01:38;9.17;;;6.80;;
41343;SDS011;27089;50.022;7.604;2023-04-24T05:04:05;6.93;;;5.77;;
41343;SDS011;27089;50.022;7.604;2023-04-24T05:06:33;8.27;;;6.30;;
41343;SDS011;27089;50.022;7.604;2023-04-24T05:09:00;8.33;;;5.40;;
41343;SDS011;27089;50.022;7.604;2023-04-24T05:11:29;7.10;;;5.20;;
41343;SDS011;27089;50.022;7.604;2023-04-24T05:13:56;6.73;;;5.70;;
41343;SDS011;27089;50.022;7.604;2023-04-24T05:16:23;7.93;;;5.03;;
41343;SDS011;27089;50.022;7.604;2023-04-24T05:18:50;6.27;;;5.33;;
41343;SDS011;27089;50.022;7.604;2023-04-24T05:21:17;6.97;;;5.53;;
41343;SDS011;27089;50.022;7.604;2023-04-24T05:23:45;6.40;;;5.03;;
41343;SDS011;27089;50.022;7.604;2023-04-24T05:26:12;6.97;;;5.57;;
41343;SDS011;27089;50.022;7.604;2023-04-24T05:28:40;5.77;;;5.00;;
41343;SDS011;27089;50.022;7.604;2023-04-24T05:31:07;6.30;;;5.07;;
41343;SDS011;27089;50.022;7.604;2023-04-24T05:33:34;6.57;;;5.57;;
41343;SDS011;27089;50.022;7.604;2023-04-24T05:36:01;14.90;;;7.90;;
41343;SDS011;27089;50.022;7.604;2023-04-24T05:38:29;9.30;;;6.70;;
41343;SDS011;27089;50.022;7.604;2023-04-24T05:40:57;7.47;;;6.60;;
41343;SDS011;27089;50.022;7.604;2023-04-24T05:43:24;13.27;;;9.47;;
41343;SDS011;27089;50.022;7.604;2023-04-24T05:45:51;7.90;;;5.50;;
41343;SDS011;27089;50.022;7.604;2023-04-24T05:48:18;9.53;;;6.97;;
41343;SDS011;27089;50.022;7.604;2023-04-24T05:50:47;7.60;;;5.97;;
41343;SDS011;27089;50.022;7.604;2023-04-24T05:53:15;8.03;;;6.23;;
41343;SDS011;27089;50.022;7.604;2023-04-24T05:55:42;6.53;;;5.10;;
41343;SDS011;27089;50.022;7.604;2023-04-24T05:58:10;10.33;;;6.60;;
41343;SDS011;27089;50.022;7.604;2023-04-24T06:00:38;8.77;;;5.93;;
41343;SDS011;27089;50.022;7.604;2023-04-24T06:03:07;6.30;;;5.37;;
41343;SDS011;27089;50.022;7.604;2023-04-24T06:05:35;6.43;;;4.80;;
41343;SDS011;27089;50.022;7.604;2023-04-24T06:08:02;6.20;;;4.50;;
41343;SDS011;27089;50.022;7.604;2023-04-24T06:10:29;7.47;;;5.20;;
41343;SDS011;27089;50.022;7.604;2023-04-24T06:12:56;4.70;;;4.17;;
41343;SDS011;27089;50.022;7.604;2023-04-24T06:15:27;5.20;;;4.60;;
41343;SDS011;27089;50.022;7.604;2023-04-24T06:17:55;6.63;;;5.50;;
41343;SDS011;27089;50.022;7.604;2023-04-24T06:20:23;6.00;;;5.40;;
41343;SDS011;27089;50.022;7.604;2023-04-24T06:22:50;6.10;;;4.80;;
41343;SDS011;27089;50.022;7.604;2023-04-24T06:25:17;8.10;;;4.70;;
41343;SDS011;27089;50.022;7.604;2023-04-24T06:27:44;5.53;;;4.93;;
41343;SDS011;27089;50.022;7.604;2023-04-24T06:30:11;5.27;;;4.47;;
41343;SDS011;27089;50.022;7.604;2023-04-24T06:32:41;8.03;;;5.23;;
41343;SDS011;27089;50.022;7.604;2023-04-24T06:35:08;6.63;;;5.50;;
41343;SDS011;27089;50.022;7.604;2023-04-24T06:37:36;8.07;;;5.30;;
41343;SDS011;27089;50.022;7.604;2023-04-24T06:40:04;4.50;;;4.10;;
41343;SDS011;27089;50.022;7.604;2023-04-24T06:42:32;5.40;;;4.00;;
41343;SDS011;27089;50.022;7.604;2023-04-24T06:45:00;7.30;;;4.10;;
41343;SDS011;27089;50.022;7.604;2023-04-24T06:47:27;4.70;;;3.70;;
41343;SDS011;27089;50.022;7.604;2023-04-24T06:49:55;4.37;;;3.23;;
41343;SDS011;27089;50.022;7.604;2023-04-24T06:52:24;4.37;;;3.50;;
41343;SDS011;27089;50.022;7.604;2023-04-24T06:54:51;4.77;;;3.57;;
41343;SDS011;27089;50.022;7.604;2023-04-24T06:57:18;3.70;;;3.40;;
41343;SDS011;27089;50.022;7.604;2023-04-24T06:59:45;4.83;;;3.50;;
41343;SDS011;27089;50.022;7.604;2023-04-24T07:02:12;4.67;;;3.40;;
41343;SDS011;27089;50.022;7.604;2023-04-24T07:04:39;4.03;;;3.63;;
41343;SDS011;27089;50.022;7.604;2023-04-24T07:07:08;4.83;;;4.10;;
41343;SDS011;27089;50.022;7.604;2023-04-24T07:09:38;5.97;;;4.00;;
41343;SDS011;27089;50.022;7.604;2023-04-24T07:12:07;3.37;;;3.03;;
41343;SDS011;27089;50.022;7.604;2023-04-24T07:14:35;3.53;;;3.20;;
41343;SDS011;27089;50.022;7.604;2023-04-24T07:17:02;3.63;;;3.23;;
41343;SDS011;27089;50.022;7.604;2023-04-24T07:19:30;4.33;;;3.30;;
41343;SDS011;27089;50.022;7.604;2023-04-24T07:21:57;4.67;;;3.53;;
41343;SDS011;27089;50.022;7.604;2023-04-24T07:24:26;4.17;;;3.23;;
41343;SDS011;27089;50.022;7.604;2023-04-24T07:26:54;3.33;;;3.00;;
41343;SDS011;27089;50.022;7.604;2023-04-24T07:29:22;4.40;;;2.83;;
41343;SDS011;27089;50.022;7.604;2023-04-24T07:31:49;2.70;;;2.50;;
41343;SDS011;27089;50.022;7.604;2023-04-24T07:34:16;3.43;;;3.00;;
41343;SDS011;27089;50.022;7.604;2023-04-24T07:36:43;3.40;;;3.10;;
41343;SDS011;27089;50.022;7.604;2023-04-24T07:39:09;4.20;;;3.23;;
41343;SDS011;27089;50.022;7.604;2023-04-24T07:41:38;3.33;;;2.90;;
41343;SDS011;27089;50.022;7.604;2023-04-24T07:44:05;3.90;;;3.07;;
41343;SDS011;27089;50.022;7.604;2023-04-24T07:46:32;3.00;;;2.70;;
41343;SDS011;27089;50.022;7.604;2023-04-24T07:48:59;4.43;;;3.20;;
41343;SDS011;27089;50.022;7.604;2023-04-24T07:51:27;3.83;;;2.87;;
41343;SDS011;27089;50.022;7.604;2023-04-24T07:53:55;5.53;;;3.53;;
41343;SDS011;27089;50.022;7.604;2023-04-24T07:56:22;4.23;;;3.20;;
41343;SDS011;27089;50.022;7.604;2023-04-24T07:58:51;5.13;;;3.00;;
41343;SDS011;27089;50.022;7.604;2023-04-24T08:01:18;4.73;;;3.20;;
41343;SDS011;27089;50.022;7.604;2023-04-24T08:03:45;4.43;;;3.40;;
41343;SDS011;27089;50.022;7.604;2023-04-24T08:06:12;3.43;;;3.13;;
41343;SDS011;27089;50.022;7.604;2023-04-24T08:08:39;3.47;;;3.17;;
41343;SDS011;27089;50.022;7.604;2023-04-24T08:11:06;4.97;;;3.33;;
41343;SDS011;27089;50.022;7.604;2023-04-24T08:13:33;4.03;;;2.73;;
41343;SDS011;27089;50.022;7.604;2023-04-24T08:16:02;3.60;;;3.10;;
41343;SDS011;27089;50.022;7.604;2023-04-24T08:18:29;5.50;;;3.50;;
41343;SDS011;27089;50.022;7.604;2023-04-24T08:20:55;4.10;;;3.47;;
41343;SDS011;27089;50.022;7.604;2023-04-24T08:23:26;4.00;;;2.90;;
41343;SDS011;27089;50.022;7.604;2023-04-24T08:25:53;3.60;;;2.83;;
41343;SDS011;27089;50.022;7.604;2023-04-24T08:28:21;4.97;;;4.20;;
41343;SDS011;27089;50.022;7.604;2023-04-24T08:30:48;3.73;;;3.30;;
41343;SDS011;27089;50.022;7.604;2023-04-24T08:33:21;6.10;;;4.40;;
41343;SDS011;27089;50.022;7.604;2023-04-24T08:35:49;4.90;;;4.40;;
41343;SDS011;27089;50.022;7.604;2023-04-24T08:38:16;3.47;;;3.10;;
41343;SDS011;27089;50.022;7.604;2023-04-24T08:40:43;3.53;;;3.17;;
41343;SDS011;27089;50.022;7.604;2023-04-24T08:43:11;4.03;;;2.97;;
41343;SDS011;27089;50.022;7.604;2023-04-24T08:45:39;3.17;;;2.47;;
41343;SDS011;27089;50.022;7.604;2023-04-24T08:48:07;2.63;;;2.40;;
41343;SDS011;27089;50.022;7.604;2023-04-24T08:50:35;4.97;;;2.60;;
41343;SDS011;27089;50.022;7.604;2023-04-24T08:53:04;2.40;;;2.20;;
41343;SDS011;27089;50.022;7.604;2023-04-24T08:55:33;4.10;;;2.40;;
41343;SDS011;27089;50.022;7.604;2023-04-24T08:58:00;4.27;;;2.33;;
41343;SDS011;27089;50.022;7.604;2023-04-24T09:00:28;4.67;;;2.10;;
41343;SDS011;27089;50.022;7.604;2023-04-24T09:02:56;4.00;;;2.43;;
41343;SDS011;27089;50.022;7.604;2023-04-24T09:05:23;2.70;;;2.20;;
41343;SDS011;27089;50.022;7.604;2023-04-24T09:07:53;2.77;;;2.23;;
41343;SDS011;27089;50.022;7.604;2023-04-24T09:10:21;3.33;;;2.23;;
41343;SDS011;27089;50.022;7.604;2023-04-24T09:12:50;3.67;;;2.30;;
41343;SDS011;27089;50.022;7.604;2023-04-24T09:15:18;3.47;;;2.00;;
41343;SDS011;27089;50.022;7.604;2023-04-24T09:17:45;4.83;;;2.37;;
41343;SDS011;27089;50.022;7.604;2023-04-24T09:20:13;2.60;;;2.20;;
41343;SDS011;27089;50.022;7.604;2023-04-24T09:22:40;3.20;;;2.10;;
41343;SDS011;27089;50.022;7.604;2023-04-24T09:25:10;2.07;;;1.90;;
41343;SDS011;27089;50.022;7.604;2023-04-24T09:27:41;2.97;;;1.90;;
41343;SDS011;27089;50.022;7.604;2023-04-24T09:30:10;2.77;;;1.80;;
41343;SDS011;27089;50.022;7.604;2023-04-24T09:32:38;3.27;;;2.23;;
41343;SDS011;27089;50.022;7.604;2023-04-24T09:35:06;2.30;;;2.07;;
41343;SDS011;27089;50.022;7.604;2023-04-24T09:37:35;2.50;;;2.07;;
41343;SDS011;27089;50.022;7.604;2023-04-24T09:40:14;4.23;;;1.83;;
41343;SDS011;27089;50.022;7.604;2023-04-24T09:42:46;2.10;;;1.90;;
41343;SDS011;27089;50.022;7.604;2023-04-24T09:45:18;2.20;;;1.90;;
41343;SDS011;27089;50.022;7.604;2023-04-24T09:47:45;2.50;;;2.00;;
41343;SDS011;27089;50.022;7.604;2023-04-24T09:50:12;1.33;;;1.23;;
41343;SDS011;27089;50.022;7.604;2023-04-24T09:52:41;1.40;;;1.30;;
41343;SDS011;27089;50.022;7.604;2023-04-24T09:55:10;1.60;;;1.50;;
41343;SDS011;27089;50.022;7.604;2023-04-24T09:57:47;4.77;;;3.40;;
41343;SDS011;27089;50.022;7.604;2023-04-24T10:00:21;2.00;;;1.80;;
41343;SDS011;27089;50.022;7.604;2023-04-24T10:02:50;1.97;;;1.60;;
41343;SDS011;27089;50.022;7.604;2023-04-24T10:05:22;2.20;;;2.00;;
41343;SDS011;27089;50.022;7.604;2023-04-24T10:07:50;2.50;;;2.13;;
41343;SDS011;27089;50.022;7.604;2023-04-24T10:10:17;2.95;;;2.30;;
41343;SDS011;27089;50.022;7.604;2023-04-24T10:12:45;2.53;;;2.30;;
41343;SDS011;27089;50.022;7.604;2023-04-24T10:15:14;3.78;;;2.50;;
41343;SDS011;27089;50.022;7.604;2023-04-24T10:17:45;3.42;;;2.17;;
41343;SDS011;27089;50.022;7.604;2023-04-24T10:20:17;2.60;;;2.40;;
41343;SDS011;27089;50.022;7.604;2023-04-24T10:22:45;3.13;;;2.60;;
41343;SDS011;27089;50.022;7.604;2023-04-24T10:25:16;2.85;;;2.38;;
41343;SDS011;27089;50.022;7.604;2023-04-24T10:27:44;3.63;;;2.45;;
41343;SDS011;27089;50.022;7.604;2023-04-24T10:30:14;3.17;;;2.50;;
41343;SDS011;27089;50.022;7.604;2023-04-24T10:32:42;5.15;;;2.83;;
41343;SDS011;27089;50.022;7.604;2023-04-24T10:35:09;3.93;;;2.73;;
41343;SDS011;27089;50.022;7.604;2023-04-24T10:37:39;3.23;;;2.53;;
41343;SDS011;27089;50.022;7.604;2023-04-24T10:40:11;4.53;;;2.97;;
41343;SDS011;27089;50.022;7.604;2023-04-24T10:42:41;4.87;;;3.20;;
41343;SDS011;27089;50.022;7.604;2023-04-24T10:45:17;4.30;;;3.20;;
41343;SDS011;27089;50.022;7.604;2023-04-24T10:50:30;3.73;;;3.10;;
41343;SDS011;27089;50.022;7.604;2023-04-24T10:53:12;3.93;;;2.77;;
41343;SDS011;27089;50.022;7.604;2023-04-24T10:55:45;3.87;;;2.70;;
41343;SDS011;27089;50.022;7.604;2023-04-24T10:58:13;3.50;;;2.93;;
41343;SDS011;27089;50.022;7.604;2023-04-24T11:00:43;5.67;;;3.57;;
41343;SDS011;27089;50.022;7.604;2023-04-24T11:03:25;3.77;;;2.93;;
41343;SDS011;27089;50.022;7.604;2023-04-24T11:05:55;3.70;;;3.03;;
41343;SDS011;27089;50.022;7.604;2023-04-24T11:08:24;6.30;;;3.50;;
41343;SDS011;27089;50.022;7.604;2023-04-24T11:11:03;4.30;;;3.10;;
41343;SDS011;27089;50.022;7.604;2023-04-24T11:16:31;3.67;;;2.90;;
41343;SDS011;27089;50.022;7.604;2023-04-24T11:19:03;3.03;;;2.53;;
41343;SDS011;27089;50.022;7.604;2023-04-24T11:21:32;3.30;;;2.53;;
41343;SDS011;27089;50.022;7.604;2023-04-24T11:24:25;4.43;;;2.90;;
41343;SDS011;27089;50.022;7.604;2023-04-24T11:26:54;3.23;;;2.93;;
41343;SDS011;27089;50.022;7.604;2023-04-24T11:29:22;6.77;;;3.13;;
41343;SDS011;27089;50.022;7.604;2023-04-24T11:32:15;6.10;;;3.53;;
41343;SDS011;27089;50.022;7.604;2023-04-24T11:35:00;8.03;;;4.87;;
41343;SDS011;27089;50.022;7.604;2023-04-24T11:37:33;6.63;;;5.17;;
41343;SDS011;27089;50.022;7.604;2023-04-24T11:40:01;5.57;;;3.60;;
41343;SDS011;27089;50.022;7.604;2023-04-24T11:42:33;5.27;;;3.90;;
41343;SDS011;27089;50.022;7.604;2023-04-24T11:45:01;4.17;;;3.40;;
41343;SDS011;27089;50.022;7.604;2023-04-24T11:47:34;4.50;;;3.30;;
41343;SDS011;27089;50.022;7.604;2023-04-24T11:50:02;4.03;;;3.23;;
41343;SDS011;27089;50.022;7.604;2023-04-24T11:52:30;4.33;;;3.30;;
41343;SDS011;27089;50.022;7.604;2023-04-24T11:54:57;6.63;;;4.30;;
41343;SDS011;27089;50.022;7.604;2023-04-24T11:57:25;6.83;;;4.87;;
41343;SDS011;27089;50.022;7.604;2023-04-24T11:59:54;8.03;;;5.53;;
41343;SDS011;27089;50.022;7.604;2023-04-24T12:02:21;7.70;;;4.67;;
41343;SDS011;27089;50.022;7.604;2023-04-24T12:04:50;8.00;;;4.97;;
41343;SDS011;27089;50.022;7.604;2023-04-24T12:07:18;5.07;;;4.50;;
41343;SDS011;27089;50.022;7.604;2023-04-24T12:09:45;5.83;;;4.37;;
41343;SDS011;27089;50.022;7.604;2023-04-24T12:12:14;5.47;;;4.10;;
41343;SDS011;27089;50.022;7.604;2023-04-24T12:14:43;6.90;;;3.90;;
41343;SDS011;27089;50.022;7.604;2023-04-24T12:17:23;6.23;;;5.47;;
41343;SDS011;27089;50.022;7.604;2023-04-24T12:19:56;6.83;;;4.00;;
41343;SDS011;27089;50.022;7.604;2023-04-24T12:22:25;6.80;;;3.70;;
41343;SDS011;27089;50.022;7.604;2023-04-24T12:24:59;5.43;;;3.70;;
41343;SDS011;27089;50.022;7.604;2023-04-24T12:27:31;5.60;;;4.03;;
41343;SDS011;27089;50.022;7.604;2023-04-24T12:29:59;4.70;;;3.90;;
41343;SDS011;27089;50.022;7.604;2023-04-24T12:32:29;6.90;;;4.23;;
41343;SDS011;27089;50.022;7.604;2023-04-24T12:34:57;5.83;;;4.30;;
41343;SDS011;27089;50.022;7.604;2023-04-24T12:37:26;6.10;;;3.93;;
41343;SDS011;27089;50.022;7.604;2023-04-24T12:39:58;6.03;;;4.10;;
41343;SDS011;27089;50.022;7.604;2023-04-24T12:42:26;5.50;;;4.30;;
41343;SDS011;27089;50.022;7.604;2023-04-24T12:44:58;5.80;;;4.40;;
41343;SDS011;27089;50.022;7.604;2023-04-24T12:47:26;4.73;;;4.13;;
41343;SDS011;27089;50.022;7.604;2023-04-24T12:49:54;5.73;;;3.53;;
41343;SDS011;27089;50.022;7.604;2023-04-24T12:52:22;5.33;;;3.60;;
41343;SDS011;27089;50.022;7.604;2023-04-24T12:54:51;5.20;;;3.70;;
41343;SDS011;27089;50.022;7.604;2023-04-24T12:57:20;5.93;;;4.50;;
41343;SDS011;27089;50.022;7.604;2023-04-24T12:59:47;5.70;;;4.20;;
41343;SDS011;27089;50.022;7.604;2023-04-24T13:02:14;6.33;;;4.67;;
41343;SDS011;27089;50.022;7.604;2023-04-24T13:04:43;5.33;;;3.90;;
41343;SDS011;27089;50.022;7.604;2023-04-24T13:07:11;7.27;;;4.47;;
41343;SDS011;27089;50.022;7.604;2023-04-24T13:09:40;5.67;;;3.93;;
41343;SDS011;27089;50.022;7.604;2023-04-24T13:12:08;5.40;;;3.87;;
41343;SDS011;27089;50.022;7.604;2023-04-24T13:14:35;4.30;;;3.63;;
41343;SDS011;27089;50.022;7.604;2023-04-24T13:17:03;6.93;;;4.10;;
41343;SDS011;27089;50.022;7.604;2023-04-24T13:19:34;4.27;;;3.63;;
41343;SDS011;27089;50.022;7.604;2023-04-24T13:22:03;5.33;;;4.03;;
41343;SDS011;27089;50.022;7.604;2023-04-24T13:24:30;6.60;;;4.00;;
41343;SDS011;27089;50.022;7.604;2023-04-24T13:26:59;6.00;;;3.73;;
41343;SDS011;27089;50.022;7.604;2023-04-24T13:29:27;5.07;;;4.03;;
41343;SDS011;27089;50.022;7.604;2023-04-24T13:31:56;6.00;;;3.93;;
41343;SDS011;27089;50.022;7.604;2023-04-24T13:34:24;5.93;;;3.60;;
41343;SDS011;27089;50.022;7.604;2023-04-24T13:36:52;6.23;;;4.17;;
41343;SDS011;27089;50.022;7.604;2023-04-24T13:39:20;7.63;;;4.37;;
41343;SDS011;27089;50.022;7.604;2023-04-24T13:41:48;4.50;;;3.63;;
41343;SDS011;27089;50.022;7.604;2023-04-24T13:44:17;4.47;;;3.20;;
41343;SDS011;27089;50.022;7.604;2023-04-24T13:46:46;8.50;;;3.80;;
41343;SDS011;27089;50.022;7.604;2023-04-24T13:49:14;5.40;;;3.80;;
41343;SDS011;27089;50.022;7.604;2023-04-24T13:51:41;5.30;;;3.23;;
41343;SDS011;27089;50.022;7.604;2023-04-24T13:54:08;5.30;;;3.80;;
41343;SDS011;27089;50.022;7.604;2023-04-24T13:56:36;4.50;;;3.80;;
41343;SDS011;27089;50.022;7.604;2023-04-24T13:59:03;6.57;;;3.90;;
41343;SDS011;27089;50.022;7.604;2023-04-24T14:01:32;4.37;;;3.40;;
41343;SDS011;27089;50.022;7.604;2023-04-24T14:03:59;5.43;;;3.70;;
41343;SDS011;27089;50.022;7.604;2023-04-24T14:06:26;6.10;;;3.40;;
41343;SDS011;27089;50.022;7.604;2023-04-24T14:08:53;6.90;;;3.60;;
41343;SDS011;27089;50.022;7.604;2023-04-24T14:11:21;5.90;;;4.33;;
41343;SDS011;27089;50.022;7.604;2023-04-24T14:13:48;4.87;;;3.57;;
41343;SDS011;27089;50.022;7.604;2023-04-24T14:16:15;4.93;;;3.83;;
41343;SDS011;27089;50.022;7.604;2023-04-24T14:18:43;5.10;;;3.63;;
41343;SDS011;27089;50.022;7.604;2023-04-24T14:21:10;5.90;;;4.00;;
41343;SDS011;27089;50.022;7.604;2023-04-24T14:23:37;4.63;;;4.07;;
41343;SDS011;27089;50.022;7.604;2023-04-24T14:26:04;5.43;;;3.87;;
41343;SDS011;27089;50.022;7.604;2023-04-24T14:28:32;5.50;;;3.90;;
41343;SDS011;27089;50.022;7.604;2023-04-24T14:30:59;7.37;;;4.87;;
41343;SDS011;27089;50.022;7.604;2023-04-24T14:33:27;5.53;;;3.97;;
41343;SDS011;27089;50.022;7.604;2023-04-24T14:35:55;6.87;;;3.93;;
41343;SDS011;27089;50.022;7.604;2023-04-24T14:38:23;5.27;;;4.03;;
41343;SDS011;27089;50.022;7.604;2023-04-24T14:40:50;6.80;;;4.60;;
41343;SDS011;27089;50.022;7.604;2023-04-24T14:43:17;6.43;;;5.10;;
41343;SDS011;27089;50.022;7.604;2023-04-24T14:45:44;6.57;;;4.70;;
41343;SDS011;27089;50.022;7.604;2023-04-24T14:48:11;6.17;;;4.90;;
41343;SDS011;27089;50.022;7.604;2023-04-24T14:50:38;9.43;;;5.43;;
41343;SDS011;27089;50.022;7.604;2023-04-24T14:53:06;7.27;;;4.23;;
41343;SDS011;27089;50.022;7.604;2023-04-24T14:55:33;5.50;;;4.70;;
41343;SDS011;27089;50.022;7.604;2023-04-24T14:58:01;6.60;;;4.83;;
41343;SDS011;27089;50.022;7.604;2023-04-24T15:00:28;5.50;;;4.67;;